sensor_id;sensor_type;location;lat;lon;timestamp;temperature;humidity
4090;DHT22;2059;48.538;12.146;2022-10-28T00:02:33;13.70;99.90
4090;DHT22;2059;48.538;12.146;2022-10-28T00:07:35;13.60;99.90
4090;DHT22;2059;48.538;12.146;2022-10-28T00:12:38;13.60;99.90
4090;DHT22;2059;48.538;12.146;2022-10-28T00:17:40;13.50;99.90
4090;DHT22;2059;48.538;12.146;2022-10-28T00:22:42;13.50;99.90
4090;DHT22;2059;48.538;12.146;2022-10-28T00:27:46;13.50;99.90
4090;DHT22;2059;48.538;12.146;2022-10-28T00:32:48;13.50;99.90
4090;DHT22;2059;48.538;12.146;2022-10-28T00:37:51;13.50;99.90
4090;DHT22;2059;48.538;12.146;2022-10-28T00:42:55;13.60;99.90
4090;DHT22;2059;48.538;12.146;2022-10-28T00:48:00;13.40;99.90
4090;DHT22;2059;48.538;12.146;2022-10-28T00:53:07;13.40;99.90
4090;DHT22;2059;48.538;12.146;2022-10-28T00:58:13;13.40;99.90
4090;DHT22;2059;48.538;12.146;2022-10-28T01:03:15;13.20;99.90
4090;DHT22;2059;48.538;12.146;2022-10-28T01:08:17;13.20;99.90
4090;DHT22;2059;48.538;12.146;2022-10-28T01:13:29;13.30;99.90
4090;DHT22;2059;48.538;12.146;2022-10-28T01:18:38;13.40;99.90
4090;DHT22;2059;48.538;12.146;2022-10-28T01:23:53;13.30;99.90
4090;DHT22;2059;48.538;12.146;2022-10-28T01:34:37;13.10;99.90
4090;DHT22;2059;48.538;12.146;2022-10-28T01:39:44;13.20;99.90
4090;DHT22;2059;48.538;12.146;2022-10-28T01:44:51;13.10;99.90
4090;DHT22;2059;48.538;12.146;2022-10-28T01:49:59;13.00;99.90
4090;DHT22;2059;48.538;12.146;2022-10-28T01:55:07;12.90;99.90
4090;DHT22;2059;48.538;12.146;2022-10-28T02:00:12;13.00;99.90
4090;DHT22;2059;48.538;12.146;2022-10-28T02:05:40;12.90;99.90
4090;DHT22;2059;48.538;12.146;2022-10-28T02:10:50;12.90;99.90
4090;DHT22;2059;48.538;12.146;2022-10-28T02:16:03;12.90;99.90
4090;DHT22;2059;48.538;12.146;2022-10-28T02:21:16;12.80;99.90
4090;DHT22;2059;48.538;12.146;2022-10-28T02:26:23;12.70;99.90
4090;DHT22;2059;48.538;12.146;2022-10-28T02:31:29;12.90;99.90
4090;DHT22;2059;48.538;12.146;2022-10-28T02:36:38;12.70;99.90
4090;DHT22;2059;48.538;12.146;2022-10-28T02:41:45;12.70;99.90
4090;DHT22;2059;48.538;12.146;2022-10-28T02:46:49;12.70;99.90
4090;DHT22;2059;48.538;12.146;2022-10-28T02:51:56;12.50;99.90
4090;DHT22;2059;48.538;12.146;2022-10-28T02:57:01;12.70;99.90
4090;DHT22;2059;48.538;12.146;2022-10-28T03:02:04;12.70;99.90
4090;DHT22;2059;48.538;12.146;2022-10-28T03:07:08;12.50;99.90
4090;DHT22;2059;48.538;12.146;2022-10-28T03:12:10;12.60;99.90
4090;DHT22;2059;48.538;12.146;2022-10-28T03:17:12;12.60;99.90
4090;DHT22;2059;48.538;12.146;2022-10-28T03:22:15;12.60;99.90
4090;DHT22;2059;48.538;12.146;2022-10-28T03:27:17;12.50;99.90
4090;DHT22;2059;48.538;12.146;2022-10-28T03:32:19;12.40;99.90
4090;DHT22;2059;48.538;12.146;2022-10-28T03:37:22;12.40;99.90
4090;DHT22;2059;48.538;12.146;2022-10-28T03:42:24;12.50;99.90
4090;DHT22;2059;48.538;12.146;2022-10-28T03:47:26;12.50;99.90
4090;DHT22;2059;48.538;12.146;2022-10-28T03:52:29;12.50;99.90
4090;DHT22;2059;48.538;12.146;2022-10-28T03:57:32;12.40;99.90
4090;DHT22;2059;48.538;12.146;2022-10-28T04:02:34;12.60;99.90
4090;DHT22;2059;48.538;12.146;2022-10-28T04:07:37;12.50;99.90
4090;DHT22;2059;48.538;12.146;2022-10-28T04:12:39;12.50;99.90
4090;DHT22;2059;48.538;12.146;2022-10-28T04:17:41;12.50;99.90
4090;DHT22;2059;48.538;12.146;2022-10-28T04:22:44;12.60;99.90
4090;DHT22;2059;48.538;12.146;2022-10-28T04:27:47;12.50;99.90
4090;DHT22;2059;48.538;12.146;2022-10-28T04:32:49;12.50;99.90
4090;DHT22;2059;48.538;12.146;2022-10-28T04:37:52;12.50;99.90
4090;DHT22;2059;48.538;12.146;2022-10-28T04:42:54;12.40;99.90
4090;DHT22;2059;48.538;12.146;2022-10-28T04:47:56;12.50;99.90
4090;DHT22;2059;48.538;12.146;2022-10-28T04:52:59;12.50;99.90
4090;DHT22;2059;48.538;12.146;2022-10-28T04:58:01;12.30;99.90
4090;DHT22;2059;48.538;12.146;2022-10-28T05:03:03;12.20;99.90
4090;DHT22;2059;48.538;12.146;2022-10-28T05:08:07;12.40;99.90
4090;DHT22;2059;48.538;12.146;2022-10-28T05:13:09;12.30;99.90
4090;DHT22;2059;48.538;12.146;2022-10-28T05:18:11;12.50;99.90
4090;DHT22;2059;48.538;12.146;2022-10-28T05:23:14;12.30;99.90
4090;DHT22;2059;48.538;12.146;2022-10-28T05:28:16;12.40;99.90
4090;DHT22;2059;48.538;12.146;2022-10-28T05:33:18;12.30;99.90
4090;DHT22;2059;48.538;12.146;2022-10-28T05:38:22;12.30;99.90
4090;DHT22;2059;48.538;12.146;2022-10-28T05:43:24;12.20;99.90
4090;DHT22;2059;48.538;12.146;2022-10-28T05:48:26;12.30;99.90
4090;DHT22;2059;48.538;12.146;2022-10-28T05:53:29;12.40;99.90
4090;DHT22;2059;48.538;12.146;2022-10-28T05:58:31;12.30;99.90
4090;DHT22;2059;48.538;12.146;2022-10-28T06:03:33;12.40;99.90
4090;DHT22;2059;48.538;12.146;2022-10-28T06:08:36;12.50;99.90
4090;DHT22;2059;48.538;12.146;2022-10-28T06:13:38;12.50;99.90
4090;DHT22;2059;48.538;12.146;2022-10-28T06:18:40;12.40;99.90
4090;DHT22;2059;48.538;12.146;2022-10-28T06:23:43;12.40;99.90
4090;DHT22;2059;48.538;12.146;2022-10-28T06:28:47;12.40;99.90
4090;DHT22;2059;48.538;12.146;2022-10-28T06:33:49;12.40;99.90
4090;DHT22;2059;48.538;12.146;2022-10-28T06:38:53;12.50;99.90
4090;DHT22;2059;48.538;12.146;2022-10-28T06:43:55;12.60;99.90
4090;DHT22;2059;48.538;12.146;2022-10-28T06:48:57;12.80;99.90
4090;DHT22;2059;48.538;12.146;2022-10-28T06:54:04;12.80;99.90
4090;DHT22;2059;48.538;12.146;2022-10-28T06:59:07;13.00;99.90
4090;DHT22;2059;48.538;12.146;2022-10-28T07:04:10;13.00;99.90
4090;DHT22;2059;48.538;12.146;2022-10-28T07:09:14;13.10;99.90
4090;DHT22;2059;48.538;12.146;2022-10-28T07:14:16;13.30;99.90
4090;DHT22;2059;48.538;12.146;2022-10-28T07:19:18;13.40;99.90
4090;DHT22;2059;48.538;12.146;2022-10-28T07:24:21;13.70;99.90
4090;DHT22;2059;48.538;12.146;2022-10-28T07:29:23;13.80;99.90
4090;DHT22;2059;48.538;12.146;2022-10-28T07:34:25;14.00;99.90
4090;DHT22;2059;48.538;12.146;2022-10-28T07:39:29;14.20;99.90
4090;DHT22;2059;48.538;12.146;2022-10-28T07:44:30;14.50;99.90
4090;DHT22;2059;48.538;12.146;2022-10-28T07:49:32;14.60;99.90
4090;DHT22;2059;48.538;12.146;2022-10-28T07:54:36;14.70;99.90
4090;DHT22;2059;48.538;12.146;2022-10-28T07:59:37;14.90;99.90
4090;DHT22;2059;48.538;12.146;2022-10-28T08:04:39;15.20;99.90
4090;DHT22;2059;48.538;12.146;2022-10-28T08:09:43;15.40;99.90
4090;DHT22;2059;48.538;12.146;2022-10-28T08:14:45;15.70;99.90
4090;DHT22;2059;48.538;12.146;2022-10-28T08:19:47;15.80;99.90
4090;DHT22;2059;48.538;12.146;2022-10-28T08:24:50;15.80;99.90
4090;DHT22;2059;48.538;12.146;2022-10-28T08:29:52;15.90;99.90
4090;DHT22;2059;48.538;12.146;2022-10-28T08:34:54;16.30;99.90
4090;DHT22;2059;48.538;12.146;2022-10-28T08:39:58;16.60;99.90
4090;DHT22;2059;48.538;12.146;2022-10-28T08:45:22;17.00;99.90
4090;DHT22;2059;48.538;12.146;2022-10-28T08:50:26;17.30;99.90
4090;DHT22;2059;48.538;12.146;2022-10-28T08:55:35;17.40;99.90
4090;DHT22;2059;48.538;12.146;2022-10-28T09:00:42;17.50;99.90
4090;DHT22;2059;48.538;12.146;2022-10-28T09:05:46;17.60;99.90
4090;DHT22;2059;48.538;12.146;2022-10-28T09:11:02;17.60;99.90
4090;DHT22;2059;48.538;12.146;2022-10-28T09:16:16;17.70;99.90
4090;DHT22;2059;48.538;12.146;2022-10-28T09:21:32;17.70;99.90
4090;DHT22;2059;48.538;12.146;2022-10-28T09:26:43;17.40;99.90
4090;DHT22;2059;48.538;12.146;2022-10-28T09:31:52;17.60;99.90
4090;DHT22;2059;48.538;12.146;2022-10-28T09:36:59;18.10;99.90
4090;DHT22;2059;48.538;12.146;2022-10-28T09:42:05;18.50;99.90
4090;DHT22;2059;48.538;12.146;2022-10-28T09:47:13;18.90;99.90
4090;DHT22;2059;48.538;12.146;2022-10-28T09:52:20;19.30;99.90
4090;DHT22;2059;48.538;12.146;2022-10-28T09:57:30;19.80;99.90
4090;DHT22;2059;48.538;12.146;2022-10-28T10:02:32;19.80;99.90
4090;DHT22;2059;48.538;12.146;2022-10-28T10:07:37;19.70;99.90
4090;DHT22;2059;48.538;12.146;2022-10-28T10:12:41;20.10;99.90
4090;DHT22;2059;48.538;12.146;2022-10-28T10:17:44;20.00;99.90
4090;DHT22;2059;48.538;12.146;2022-10-28T10:22:48;19.80;99.90
4090;DHT22;2059;48.538;12.146;2022-10-28T10:27:52;19.80;99.90
4090;DHT22;2059;48.538;12.146;2022-10-28T10:32:57;19.80;99.90
4090;DHT22;2059;48.538;12.146;2022-10-28T10:38:00;19.80;99.90
4090;DHT22;2059;48.538;12.146;2022-10-28T10:43:22;19.80;99.90
4090;DHT22;2059;48.538;12.146;2022-10-28T10:48:24;19.90;99.90
4090;DHT22;2059;48.538;12.146;2022-10-28T10:53:28;20.30;99.90
4090;DHT22;2059;48.538;12.146;2022-10-28T10:58:34;20.90;99.90
4090;DHT22;2059;48.538;12.146;2022-10-28T11:03:45;21.30;99.90
4090;DHT22;2059;48.538;12.146;2022-10-28T11:08:48;21.60;99.90
4090;DHT22;2059;48.538;12.146;2022-10-28T11:14:04;21.80;99.90
4090;DHT22;2059;48.538;12.146;2022-10-28T11:19:18;22.00;99.90
4090;DHT22;2059;48.538;12.146;2022-10-28T11:29:49;22.40;99.90
4090;DHT22;2059;48.538;12.146;2022-10-28T11:35:20;22.50;99.20
4090;DHT22;2059;48.538;12.146;2022-10-28T11:40:33;22.60;99.30
4090;DHT22;2059;48.538;12.146;2022-10-28T11:45:44;22.80;98.70
4090;DHT22;2059;48.538;12.146;2022-10-28T11:50:57;22.70;98.50
4090;DHT22;2059;48.538;12.146;2022-10-28T11:56:11;22.90;99.20
4090;DHT22;2059;48.538;12.146;2022-10-28T12:01:31;23.00;99.60
4090;DHT22;2059;48.538;12.146;2022-10-28T12:06:51;23.10;99.00
4090;DHT22;2059;48.538;12.146;2022-10-28T12:12:04;23.30;98.50
4090;DHT22;2059;48.538;12.146;2022-10-28T12:17:17;23.40;98.90
4090;DHT22;2059;48.538;12.146;2022-10-28T12:22:24;23.60;99.00
4090;DHT22;2059;48.538;12.146;2022-10-28T12:27:30;23.80;99.00
4090;DHT22;2059;48.538;12.146;2022-10-28T12:32:36;24.00;98.40
4090;DHT22;2059;48.538;12.146;2022-10-28T12:37:42;24.00;98.40
4090;DHT22;2059;48.538;12.146;2022-10-28T12:42:50;23.70;98.20
4090;DHT22;2059;48.538;12.146;2022-10-28T12:47:58;23.50;98.10
4090;DHT22;2059;48.538;12.146;2022-10-28T12:53:17;23.50;98.10
4090;DHT22;2059;48.538;12.146;2022-10-28T12:58:26;23.40;98.60
4090;DHT22;2059;48.538;12.146;2022-10-28T13:03:31;23.30;98.60
4090;DHT22;2059;48.538;12.146;2022-10-28T13:08:57;23.20;98.10
4090;DHT22;2059;48.538;12.146;2022-10-28T13:14:07;23.00;97.70
4090;DHT22;2059;48.538;12.146;2022-10-28T13:19:27;22.90;97.50
4090;DHT22;2059;48.538;12.146;2022-10-28T13:24:33;22.80;97.30
4090;DHT22;2059;48.538;12.146;2022-10-28T13:29:42;22.70;97.20
4090;DHT22;2059;48.538;12.146;2022-10-28T13:34:45;22.60;97.70
4090;DHT22;2059;48.538;12.146;2022-10-28T13:39:47;22.70;98.30
4090;DHT22;2059;48.538;12.146;2022-10-28T13:44:51;22.80;98.20
4090;DHT22;2059;48.538;12.146;2022-10-28T13:50:22;22.80;97.90
4090;DHT22;2059;48.538;12.146;2022-10-28T13:55:42;22.80;97.50
4090;DHT22;2059;48.538;12.146;2022-10-28T14:00:44;22.70;97.30
4090;DHT22;2059;48.538;12.146;2022-10-28T14:05:52;22.70;97.70
4090;DHT22;2059;48.538;12.146;2022-10-28T14:10:59;22.80;97.60
4090;DHT22;2059;48.538;12.146;2022-10-28T14:16:19;22.60;97.20
4090;DHT22;2059;48.538;12.146;2022-10-28T14:21:36;22.60;97.80
4090;DHT22;2059;48.538;12.146;2022-10-28T14:32:42;22.50;97.30
4090;DHT22;2059;48.538;12.146;2022-10-28T14:43:35;22.60;98.00
4090;DHT22;2059;48.538;12.146;2022-10-28T14:48:46;22.50;97.80
4090;DHT22;2059;48.538;12.146;2022-10-28T14:53:50;22.40;98.10
4090;DHT22;2059;48.538;12.146;2022-10-28T14:59:02;22.30;97.90
4090;DHT22;2059;48.538;12.146;2022-10-28T15:04:10;22.20;97.80
4090;DHT22;2059;48.538;12.146;2022-10-28T15:09:16;22.00;98.00
4090;DHT22;2059;48.538;12.146;2022-10-28T15:14:30;21.90;98.20
4090;DHT22;2059;48.538;12.146;2022-10-28T15:19:33;21.70;98.40
4090;DHT22;2059;48.538;12.146;2022-10-28T15:24:35;21.70;98.30
4090;DHT22;2059;48.538;12.146;2022-10-28T15:29:40;21.50;98.70
4090;DHT22;2059;48.538;12.146;2022-10-28T15:34:42;21.30;99.00
4090;DHT22;2059;48.538;12.146;2022-10-28T15:39:44;21.20;99.30
4090;DHT22;2059;48.538;12.146;2022-10-28T15:44:53;21.10;99.50
4090;DHT22;2059;48.538;12.146;2022-10-28T15:50:08;21.00;99.80
4090;DHT22;2059;48.538;12.146;2022-10-28T15:55:26;20.90;99.90
4090;DHT22;2059;48.538;12.146;2022-10-28T16:00:30;20.80;99.90
4090;DHT22;2059;48.538;12.146;2022-10-28T16:05:43;20.70;99.90
4090;DHT22;2059;48.538;12.146;2022-10-28T16:10:47;20.60;99.90
4090;DHT22;2059;48.538;12.146;2022-10-28T16:15:54;20.50;99.90
4090;DHT22;2059;48.538;12.146;2022-10-28T16:20:58;20.40;99.90
4090;DHT22;2059;48.538;12.146;2022-10-28T16:26:01;20.40;99.90
4090;DHT22;2059;48.538;12.146;2022-10-28T16:31:04;20.30;99.90
4090;DHT22;2059;48.538;12.146;2022-10-28T16:36:07;20.20;99.90
4090;DHT22;2059;48.538;12.146;2022-10-28T16:41:13;20.00;99.90
4090;DHT22;2059;48.538;12.146;2022-10-28T16:46:18;19.90;99.90
4090;DHT22;2059;48.538;12.146;2022-10-28T16:51:20;19.90;99.90
4090;DHT22;2059;48.538;12.146;2022-10-28T16:56:22;19.80;99.90
4090;DHT22;2059;48.538;12.146;2022-10-28T17:01:25;19.60;99.90
4090;DHT22;2059;48.538;12.146;2022-10-28T17:11:30;19.50;99.90
4090;DHT22;2059;48.538;12.146;2022-10-28T17:16:33;19.40;99.90
4090;DHT22;2059;48.538;12.146;2022-10-28T17:21:35;19.30;99.90
4090;DHT22;2059;48.538;12.146;2022-10-28T17:26:38;19.30;99.90
4090;DHT22;2059;48.538;12.146;2022-10-28T17:31:41;19.20;99.90
4090;DHT22;2059;48.538;12.146;2022-10-28T17:36:43;19.10;99.90
4090;DHT22;2059;48.538;12.146;2022-10-28T17:41:45;19.00;99.90
4090;DHT22;2059;48.538;12.146;2022-10-28T17:46:48;19.00;99.90
4090;DHT22;2059;48.538;12.146;2022-10-28T17:51:50;18.90;99.90
4090;DHT22;2059;48.538;12.146;2022-10-28T17:56:52;18.80;99.90
4090;DHT22;2059;48.538;12.146;2022-10-28T18:01:56;18.70;99.90
4090;DHT22;2059;48.538;12.146;2022-10-28T18:06:57;18.70;99.90
4090;DHT22;2059;48.538;12.146;2022-10-28T18:12:00;18.50;99.90
4090;DHT22;2059;48.538;12.146;2022-10-28T18:17:03;18.50;99.90
4090;DHT22;2059;48.538;12.146;2022-10-28T18:22:05;18.40;99.90
4090;DHT22;2059;48.538;12.146;2022-10-28T18:27:07;18.30;99.90
4090;DHT22;2059;48.538;12.146;2022-10-28T18:32:10;18.30;99.90
4090;DHT22;2059;48.538;12.146;2022-10-28T18:37:12;18.20;99.90
4090;DHT22;2059;48.538;12.146;2022-10-28T18:42:14;18.10;99.90
4090;DHT22;2059;48.538;12.146;2022-10-28T18:47:19;18.00;99.90
4090;DHT22;2059;48.538;12.146;2022-10-28T18:52:21;17.90;99.90
4090;DHT22;2059;48.538;12.146;2022-10-28T18:57:23;17.90;99.90
4090;DHT22;2059;48.538;12.146;2022-10-28T19:02:26;17.80;99.90
4090;DHT22;2059;48.538;12.146;2022-10-28T19:07:28;17.70;99.90
4090;DHT22;2059;48.538;12.146;2022-10-28T19:12:30;17.70;99.90
4090;DHT22;2059;48.538;12.146;2022-10-28T19:17:33;17.60;99.90
4090;DHT22;2059;48.538;12.146;2022-10-28T19:22:35;17.50;99.90
4090;DHT22;2059;48.538;12.146;2022-10-28T19:27:37;17.50;99.90
4090;DHT22;2059;48.538;12.146;2022-10-28T19:32:40;17.40;99.90
4090;DHT22;2059;48.538;12.146;2022-10-28T19:37:42;17.20;99.90
4090;DHT22;2059;48.538;12.146;2022-10-28T19:42:44;17.20;99.90
4090;DHT22;2059;48.538;12.146;2022-10-28T19:47:47;17.10;99.90
4090;DHT22;2059;48.538;12.146;2022-10-28T19:52:49;17.10;99.90
4090;DHT22;2059;48.538;12.146;2022-10-28T19:57:50;17.10;99.90
4090;DHT22;2059;48.538;12.146;2022-10-28T20:02:54;17.00;99.90
4090;DHT22;2059;48.538;12.146;2022-10-28T20:07:56;17.00;99.90
4090;DHT22;2059;48.538;12.146;2022-10-28T20:12:58;17.00;99.90
4090;DHT22;2059;48.538;12.146;2022-10-28T20:18:03;17.00;99.90
4090;DHT22;2059;48.538;12.146;2022-10-28T20:23:05;16.90;99.90
4090;DHT22;2059;48.538;12.146;2022-10-28T20:28:07;16.90;99.90
4090;DHT22;2059;48.538;12.146;2022-10-28T20:33:10;16.90;99.90
4090;DHT22;2059;48.538;12.146;2022-10-28T20:38:12;16.90;99.90
4090;DHT22;2059;48.538;12.146;2022-10-28T20:43:15;16.80;99.90
4090;DHT22;2059;48.538;12.146;2022-10-28T20:48:18;16.80;99.90
4090;DHT22;2059;48.538;12.146;2022-10-28T20:53:21;16.80;99.90
4090;DHT22;2059;48.538;12.146;2022-10-28T20:58:24;16.80;99.90
4090;DHT22;2059;48.538;12.146;2022-10-28T21:03:29;16.70;99.90
4090;DHT22;2059;48.538;12.146;2022-10-28T21:08:31;16.70;99.90
4090;DHT22;2059;48.538;12.146;2022-10-28T21:13:34;16.70;99.90
4090;DHT22;2059;48.538;12.146;2022-10-28T21:18:38;16.70;99.90
4090;DHT22;2059;48.538;12.146;2022-10-28T21:23:40;16.60;99.90
4090;DHT22;2059;48.538;12.146;2022-10-28T21:28:42;16.70;99.90
4090;DHT22;2059;48.538;12.146;2022-10-28T21:33:47;16.70;99.90
4090;DHT22;2059;48.538;12.146;2022-10-28T21:38:52;16.60;99.90
4090;DHT22;2059;48.538;12.146;2022-10-28T21:43:54;16.70;99.90
4090;DHT22;2059;48.538;12.146;2022-10-28T21:48:57;16.60;99.90
4090;DHT22;2059;48.538;12.146;2022-10-28T21:54:00;16.60;99.90
4090;DHT22;2059;48.538;12.146;2022-10-28T21:59:02;16.60;99.90
4090;DHT22;2059;48.538;12.146;2022-10-28T22:04:05;16.60;99.90
4090;DHT22;2059;48.538;12.146;2022-10-28T22:09:07;16.50;99.90
4090;DHT22;2059;48.538;12.146;2022-10-28T22:14:09;16.50;99.90
4090;DHT22;2059;48.538;12.146;2022-10-28T22:19:13;16.50;99.90
4090;DHT22;2059;48.538;12.146;2022-10-28T22:24:15;16.50;99.90
4090;DHT22;2059;48.538;12.146;2022-10-28T22:29:17;16.50;99.90
4090;DHT22;2059;48.538;12.146;2022-10-28T22:34:20;16.40;99.90
4090;DHT22;2059;48.538;12.146;2022-10-28T22:39:22;16.40;99.90
4090;DHT22;2059;48.538;12.146;2022-10-28T22:44:24;16.40;99.90
4090;DHT22;2059;48.538;12.146;2022-10-28T22:49:27;16.40;99.90
4090;DHT22;2059;48.538;12.146;2022-10-28T22:54:29;16.40;99.90
4090;DHT22;2059;48.538;12.146;2022-10-28T22:59:30;16.40;99.90
4090;DHT22;2059;48.538;12.146;2022-10-28T23:04:34;16.30;99.90
4090;DHT22;2059;48.538;12.146;2022-10-28T23:09:35;16.30;99.90
4090;DHT22;2059;48.538;12.146;2022-10-28T23:14:37;16.30;99.90
4090;DHT22;2059;48.538;12.146;2022-10-28T23:19:40;16.30;99.90
4090;DHT22;2059;48.538;12.146;2022-10-28T23:24:42;16.20;99.90
4090;DHT22;2059;48.538;12.146;2022-10-28T23:29:44;16.20;99.90
4090;DHT22;2059;48.538;12.146;2022-10-28T23:34:47;16.10;99.90
4090;DHT22;2059;48.538;12.146;2022-10-28T23:39:49;16.10;99.90
4090;DHT22;2059;48.538;12.146;2022-10-28T23:44:51;16.00;99.90
4090;DHT22;2059;48.538;12.146;2022-10-28T23:49:54;16.00;99.90
4090;DHT22;2059;48.538;12.146;2022-10-28T23:54:56;15.90;99.90
4090;DHT22;2059;48.538;12.146;2022-10-28T23:59:57;15.80;99.90
